Time;durP1;ratioP1;P1;durP2;ratioP2;P2;SDS_P1;SDS_P2;PMS_P1;PMS_P2;Temp;Humidity;BMP_temperature;BMP_pressure;BME280_temperature;BME280_humidity;BME280_pressure;Samples;Min_cycle;Max_cycle;Signal;HPM_P1;HPM_P2
2023/07/24 00:01:14;;;;;;;0.00;0.00;;;;;;;15.33;100.00;95802.13;5039756;28;20048;-79
2023/07/24 00:04:00;;;;;;;0.10;0.10;;;;;;;15.39;100.00;95791.22;5037527;28;20042;-79
2023/07/24 00:06:46;;;;;;;0.10;0.10;;;;;;;15.40;100.00;95800.91;5041091;28;20106;-80
2023/07/24 00:09:32;;;;;;;0.10;0.10;;;;;;;15.37;100.00;95791.53;5039012;28;20487;-78
2023/07/24 00:12:18;;;;;;;0.10;0.10;;;;;;;15.36;100.00;95791.84;5040879;28;20128;-78
2023/07/24 00:15:04;;;;;;;0.00;0.00;;;;;;;15.35;100.00;95785.63;5030672;28;20041;-79
2023/07/24 00:17:50;;;;;;;0.10;0.10;;;;;;;15.35;100.00;95782.94;5037675;28;20033;-78
2023/07/24 00:20:36;;;;;;;0.10;0.10;;;;;;;15.36;100.00;95773.75;5039538;28;20052;-78
2023/07/24 00:23:22;;;;;;;0.10;0.10;;;;;;;15.35;100.00;95769.47;5039226;28;20041;-77
2023/07/24 00:26:07;;;;;;;0.00;0.00;;;;;;;15.37;100.00;95755.69;5032267;28;20049;-78
2023/07/24 00:28:53;;;;;;;0.00;0.00;;;;;;;15.41;100.00;95754.81;5037540;28;20048;-78
2023/07/24 00:31:40;;;;;;;0.10;0.10;;;;;;;15.46;100.00;95745.81;5038784;28;20083;-78
2023/07/24 00:34:25;;;;;;;0.10;0.10;;;;;;;15.42;100.00;95751.03;5028967;28;20068;-77
2023/07/24 00:37:11;;;;;;;0.10;0.10;;;;;;;15.46;100.00;95752.00;5034738;28;20048;-79
2023/07/24 00:39:57;;;;;;;0.10;0.10;;;;;;;15.45;100.00;95760.41;5037871;28;20037;-78
2023/07/24 00:42:47;;;;;;;0.10;0.10;;;;;;;15.47;100.00;95769.00;5039192;28;20036;-79
2023/07/24 00:45:33;;;;;;;0.13;0.13;;;;;;;15.49;100.00;95773.00;5014416;28;20104;-78
2023/07/24 00:48:19;;;;;;;0.10;0.10;;;;;;;15.55;100.00;95774.50;5031802;28;20046;-77
2023/07/24 00:51:05;;;;;;;0.10;0.10;;;;;;;15.53;100.00;95770.50;5025315;28;20102;-78
2023/07/24 00:54:01;;;;;;;0.10;0.10;;;;;;;15.54;100.00;95764.81;5038087;28;20053;-79
2023/07/24 00:56:48;;;;;;;0.17;0.17;;;;;;;15.52;100.00;95760.81;5039633;28;20459;-79
2023/07/24 00:59:35;;;;;;;0.10;0.10;;;;;;;15.45;100.00;95755.81;5027455;28;20045;-79
2023/07/24 01:02:21;;;;;;;0.10;0.10;;;;;;;15.41;100.00;95751.28;5037484;28;20076;-78
2023/07/24 01:05:08;;;;;;;0.10;0.10;;;;;;;15.37;100.00;95751.09;5023265;28;20040;-79
2023/07/24 01:07:55;;;;;;;0.05;0.05;;;;;;;15.30;100.00;95748.78;5037062;28;20051;-79
2023/07/24 01:10:42;;;;;;;0.00;0.00;;;;;;;15.31;100.00;95746.88;5042232;28;20787;-78
2023/07/24 01:13:32;;;;;;;0.10;0.10;;;;;;;15.33;100.00;95758.19;5023942;28;20041;-79
2023/07/24 01:16:22;;;;;;;0.10;0.10;;;;;;;15.39;100.00;95756.19;5021821;28;20041;-78
2023/07/24 01:19:16;;;;;;;0.10;0.10;;;;;;;15.41;100.00;95740.50;5038690;28;20068;-78
2023/07/24 01:22:12;;;;;;;0.10;0.10;;;;;;;15.48;100.00;95741.72;5040748;28;20674;-78
2023/07/24 01:25:19;;;;;;;0.10;0.10;;;;;;;15.54;100.00;95720.88;5036464;28;20048;-79
2023/07/24 01:28:07;;;;;;;0.10;0.10;;;;;;;15.58;100.00;95729.97;5022727;28;20041;-77
2023/07/24 01:30:54;;;;;;;0.10;0.10;;;;;;;15.56;100.00;95724.06;5026991;28;20040;-77
2023/07/24 01:33:40;;;;;;;0.10;0.10;;;;;;;15.53;100.00;95721.97;5039541;28;20223;-77
2023/07/24 01:36:26;;;;;;;0.10;0.10;;;;;;;15.53;100.00;95716.56;5038778;28;20053;-77
2023/07/24 01:39:13;;;;;;;0.10;0.10;;;;;;;15.52;100.00;95717.69;5026964;28;20033;-77
2023/07/24 01:42:00;;;;;;;0.10;0.10;;;;;;;15.48;100.00;95705.88;5018989;28;20042;-78
2023/07/24 01:44:51;;;;;;;0.00;0.00;;;;;;;15.43;100.00;95703.28;5024847;28;20037;-77
2023/07/24 01:47:38;;;;;;;0.10;0.10;;;;;;;15.39;100.00;95696.88;5038572;28;20058;-79
2023/07/24 01:50:24;;;;;;;0.10;0.10;;;;;;;15.41;100.00;95695.50;5038216;28;20047;-77
2023/07/24 01:53:10;;;;;;;0.00;0.00;;;;;;;15.47;100.00;95691.59;5023298;28;20118;-79
2023/07/24 01:55:55;;;;;;;0.10;0.10;;;;;;;15.47;100.00;95686.22;5024399;28;20434;-79
2023/07/24 01:58:42;;;;;;;0.10;0.10;;;;;;;15.46;100.00;95681.91;5023661;28;20065;-79
2023/07/24 02:01:28;;;;;;;0.00;0.00;;;;;;;15.50;100.00;95679.44;5021585;28;20083;-78
2023/07/24 02:04:14;;;;;;;0.10;0.10;;;;;;;15.49;100.00;95672.47;5036845;28;20086;-78
2023/07/24 02:07:00;;;;;;;0.10;0.10;;;;;;;15.50;100.00;95682.13;5035933;28;21025;-79
2023/07/24 02:09:46;;;;;;;0.10;0.10;;;;;;;15.49;100.00;95675.16;5040754;28;20036;-78
2023/07/24 02:12:32;;;;;;;0.10;0.10;;;;;;;15.52;100.00;95671.84;5033033;28;20044;-78
2023/07/24 02:15:18;;;;;;;0.10;0.10;;;;;;;15.54;100.00;95667.75;5037500;28;20649;-78
2023/07/24 02:18:04;;;;;;;0.10;0.10;;;;;;;15.57;100.00;95682.53;5022244;28;20041;-79
2023/07/24 02:20:51;;;;;;;0.00;0.00;;;;;;;15.54;100.00;95689.31;5038200;28;20502;-78
2023/07/24 02:23:37;;;;;;;0.00;0.00;;;;;;;15.55;100.00;95673.94;5022912;28;20041;-78
2023/07/24 02:26:24;;;;;;;0.10;0.10;;;;;;;15.49;100.00;95670.56;5037301;28;20044;-79
2023/07/24 02:29:10;;;;;;;0.10;0.10;;;;;;;15.50;100.00;95674.06;5035946;28;20415;-79
2023/07/24 02:31:59;;;;;;;0.10;0.10;;;;;;;15.42;100.00;95672.03;5023605;28;20045;-79
2023/07/24 02:34:45;;;;;;;0.10;0.10;;;;;;;15.35;100.00;95669.72;5037893;28;20073;-78
2023/07/24 02:37:31;;;;;;;0.10;0.10;;;;;;;15.32;100.00;95675.69;5037961;28;20040;-78
2023/07/24 02:40:16;;;;;;;0.10;0.10;;;;;;;15.32;100.00;95679.19;5038596;28;20033;-77
2023/07/24 02:43:02;;;;;;;0.10;0.10;;;;;;;15.32;100.00;95673.81;5038875;28;20045;-78
2023/07/24 02:45:48;;;;;;;0.10;0.10;;;;;;;15.38;100.00;95674.53;5035804;28;20041;-79
2023/07/24 02:48:34;;;;;;;0.10;0.10;;;;;;;15.40;100.00;95677.72;5038420;28;20507;-78
2023/07/24 02:51:20;;;;;;;0.10;0.10;;;;;;;15.44;100.00;95683.31;5012229;28;20045;-79
2023/07/24 02:54:06;;;;;;;0.00;0.00;;;;;;;15.44;100.00;95686.81;5019784;28;20052;-79
2023/07/24 02:56:52;;;;;;;0.10;0.10;;;;;;;15.44;100.00;95688.72;5035837;28;20118;-79
2023/07/24 02:59:38;;;;;;;0.10;0.10;;;;;;;15.40;100.00;95685.00;5039993;28;20045;-78
2023/07/24 03:02:24;;;;;;;0.10;0.10;;;;;;;15.40;100.00;95663.44;5032082;28;20565;-79
2023/07/24 03:05:10;;;;;;;0.00;0.00;;;;;;;15.39;100.00;95661.84;5039028;28;20063;-78
2023/07/24 03:07:56;;;;;;;0.00;0.00;;;;;;;15.39;100.00;95649.16;5036751;28;20037;-78
2023/07/24 03:10:42;;;;;;;0.05;0.05;;;;;;;15.32;100.00;95646.84;5025589;28;20045;-79
2023/07/24 03:13:28;;;;;;;0.10;0.10;;;;;;;15.32;100.00;95637.97;5038044;28;20037;-80
2023/07/24 03:16:14;;;;;;;0.10;0.10;;;;;;;15.30;100.00;95622.09;5021028;28;20549;-80
2023/07/24 03:19:00;;;;;;;0.10;0.10;;;;;;;15.26;100.00;95618.41;5018421;28;20069;-79
2023/07/24 03:21:46;;;;;;;0.10;0.10;;;;;;;15.29;100.00;95625.91;5024957;28;20050;-78
2023/07/24 03:24:31;;;;;;;0.10;0.10;;;;;;;15.30;100.00;95613.22;5037127;28;20151;-78
2023/07/24 03:27:17;;;;;;;0.10;0.10;;;;;;;15.27;100.00;95611.13;5034998;28;20052;-78
2023/07/24 03:30:04;;;;;;;0.10;0.10;;;;;;;15.26;100.00;95615.72;5035673;28;20079;-78
2023/07/24 03:32:50;;;;;;;0.17;0.17;;;;;;;15.36;100.00;95613.94;5036021;28;20040;-79
2023/07/24 03:35:36;;;;;;;0.10;0.10;;;;;;;15.20;100.00;95603.44;5039078;28;20037;-79
2023/07/24 03:38:23;;;;;;;0.10;0.10;;;;;;;14.99;100.00;95602.19;5037164;28;20040;-78
2023/07/24 03:41:11;;;;;;;0.10;0.10;;;;;;;14.82;100.00;95600.06;5039695;28;20045;-79
2023/07/24 03:43:57;;;;;;;0.10;0.10;;;;;;;14.76;100.00;95601.25;5040875;28;20523;-79
2023/07/24 03:46:43;;;;;;;0.10;0.10;;;;;;;14.74;100.00;95590.78;5040698;28;20052;-79
2023/07/24 03:49:29;;;;;;;0.00;0.00;;;;;;;14.70;100.00;95583.56;5027791;28;20060;-78
2023/07/24 03:52:15;;;;;;;0.10;0.10;;;;;;;14.70;100.00;95572.81;5039752;28;20052;-77
2023/07/24 03:55:01;;;;;;;0.10;0.10;;;;;;;14.67;100.00;95574.22;5034914;28;20543;-78
2023/07/24 03:57:47;;;;;;;0.10;0.10;;;;;;;14.67;100.00;95579.59;5019874;28;20116;-77
2023/07/24 04:00:33;;;;;;;0.10;0.10;;;;;;;14.71;100.00;95569.03;5020755;28;20048;-78
2023/07/24 04:03:18;;;;;;;0.10;0.10;;;;;;;14.63;100.00;95581.28;5021565;28;20042;-78
2023/07/24 04:06:04;;;;;;;0.10;0.10;;;;;;;14.59;100.00;95592.94;5021569;28;20056;-77
2023/07/24 04:08:50;;;;;;;0.10;0.10;;;;;;;14.56;100.00;95588.94;5021734;28;20037;-77
2023/07/24 04:11:38;;;;;;;0.20;0.20;;;;;;;14.57;100.00;95578.97;5021748;28;20081;-77
2023/07/24 04:14:23;;;;;;;0.08;0.08;;;;;;;14.53;100.00;95569.88;5012843;28;20049;-78
2023/07/24 04:17:09;;;;;;;0.10;0.10;;;;;;;14.61;100.00;95585.34;5021613;28;20120;-78
2023/07/24 04:19:55;;;;;;;0.10;0.10;;;;;;;14.70;100.00;95584.38;5020268;28;20079;-77
2023/07/24 04:22:41;;;;;;;0.10;0.10;;;;;;;14.81;100.00;95570.75;5000695;28;20042;-78
2023/07/24 04:25:27;;;;;;;0.10;0.10;;;;;;;14.96;100.00;95565.09;5017216;28;20047;-78
2023/07/24 04:28:13;;;;;;;0.10;0.10;;;;;;;14.95;100.00;95558.13;5018118;28;20168;-78
2023/07/24 04:31:01;;;;;;;0.10;0.10;;;;;;;14.94;100.00;95572.66;5019953;28;20048;-77
2023/07/24 04:33:47;;;;;;;0.00;0.00;;;;;;;14.89;100.00;95578.94;5020313;28;20033;-78
2023/07/24 04:36:33;;;;;;;0.10;0.10;;;;;;;14.90;100.00;95577.84;5022472;28;20037;-78
2023/07/24 04:39:19;;;;;;;0.10;0.10;;;;;;;14.92;100.00;95585.63;5023092;28;20044;-77
2023/07/24 04:42:05;;;;;;;0.10;0.10;;;;;;;14.92;100.00;95591.00;5017342;28;20045;-78
2023/07/24 04:44:51;;;;;;;0.10;0.10;;;;;;;14.93;100.00;95593.41;5020041;28;20041;-77
2023/07/24 04:47:40;;;;;;;0.10;0.10;;;;;;;15.01;100.00;95611.56;5020921;28;20037;-79
2023/07/24 04:50:26;;;;;;;0.10;0.10;;;;;;;14.90;100.00;95602.09;5019922;28;20049;-78
2023/07/24 04:53:12;;;;;;;0.00;0.00;;;;;;;14.91;100.00;95611.75;5021691;28;20071;-80
2023/07/24 04:55:58;;;;;;;0.10;0.10;;;;;;;14.96;100.00;95605.50;5034440;28;20090;-79
2023/07/24 04:58:44;;;;;;;0.00;0.00;;;;;;;14.99;100.00;95603.00;5028241;28;20036;-78
2023/07/24 05:01:30;;;;;;;0.10;0.10;;;;;;;14.96;100.00;95597.41;5041255;28;20040;-79
2023/07/24 05:04:15;;;;;;;0.10;0.10;;;;;;;14.89;100.00;95597.81;5042164;28;20038;-80
2023/07/24 05:07:01;;;;;;;0.10;0.10;;;;;;;14.86;100.00;95600.28;5042598;28;20049;-78
2023/07/24 05:09:47;;;;;;;0.00;0.00;;;;;;;14.88;100.00;95606.19;5031261;28;20037;-79
2023/07/24 05:12:33;;;;;;;0.10;0.10;;;;;;;14.94;100.00;95596.91;5040912;28;20479;-80
2023/07/24 05:15:19;;;;;;;0.10;0.10;;;;;;;15.08;100.00;95611.19;5038824;28;20102;-78
2023/07/24 05:18:05;;;;;;;0.10;0.10;;;;;;;15.17;100.00;95617.50;5040746;28;20531;-81
2023/07/24 05:20:51;;;;;;;0.10;0.10;;;;;;;15.41;100.00;95606.56;5040694;28;20135;-80
2023/07/24 05:23:37;;;;;;;0.10;0.10;;;;;;;15.63;100.00;95622.03;5041788;28;20052;-79
2023/07/24 05:26:23;;;;;;;0.10;0.10;;;;;;;15.77;100.00;95630.91;5039908;28;20037;-78
2023/07/24 05:29:10;;;;;;;0.10;0.10;;;;;;;15.88;100.00;95621.53;5041215;28;20518;-78
2023/07/24 05:31:55;;;;;;;0.10;0.10;;;;;;;15.88;100.00;95615.34;5040558;28;20045;-79
2023/07/24 05:34:41;;;;;;;0.20;0.20;;;;;;;15.95;100.00;95598.72;5039716;28;20042;-77
2023/07/24 05:37:28;;;;;;;0.10;0.10;;;;;;;16.04;100.00;95588.84;5045862;28;20774;-80
2023/07/24 05:40:14;;;;;;;0.10;0.10;;;;;;;16.04;100.00;95596.94;5027019;28;20048;-76
2023/07/24 05:43:00;;;;;;;0.10;0.10;;;;;;;16.02;100.00;95574.81;5031472;28;20044;-79
2023/07/24 05:45:46;;;;;;;0.10;0.10;;;;;;;16.02;100.00;95588.31;5041398;28;20045;-77
2023/07/24 05:48:32;;;;;;;0.10;0.10;;;;;;;16.01;100.00;95573.22;5032676;28;20036;-80
2023/07/24 05:51:17;;;;;;;0.10;0.10;;;;;;;16.08;100.00;95581.72;5038762;28;20052;-80
2023/07/24 05:54:03;;;;;;;0.10;0.10;;;;;;;16.20;100.00;95581.97;5036779;28;20053;-79
2023/07/24 05:56:51;;;;;;;0.10;0.10;;;;;;;16.29;100.00;95563.94;5032042;28;20503;-81
2023/07/24 05:59:37;;;;;;;0.10;0.10;;;;;;;16.51;100.00;95573.16;5038589;28;20037;-81
2023/07/24 06:02:23;;;;;;;0.10;0.10;;;;;;;16.64;100.00;95573.06;5037717;28;20067;-78
2023/07/24 06:05:09;;;;;;;0.10;0.10;;;;;;;16.73;100.00;95564.25;5039468;28;20543;-78
2023/07/24 06:07:55;;;;;;;0.10;0.10;;;;;;;16.75;100.00;95559.38;5038884;28;20064;-79
2023/07/24 06:10:41;;;;;;;0.10;0.10;;;;;;;16.83;100.00;95562.13;5039650;28;20033;-81
2023/07/24 06:13:26;;;;;;;0.10;0.10;;;;;;;16.93;100.00;95553.75;5036567;28;20040;-77
2023/07/24 06:16:13;;;;;;;0.10;0.10;;;;;;;17.20;100.00;95570.88;5039810;28;20083;-78
2023/07/24 06:18:59;;;;;;;0.10;0.10;;;;;;;17.22;100.00;95574.06;5040919;28;20036;-78
2023/07/24 06:21:45;;;;;;;0.00;0.00;;;;;;;17.32;100.00;95565.66;5039337;28;20037;-78
2023/07/24 06:24:31;;;;;;;0.10;0.10;;;;;;;17.43;100.00;95575.13;5041119;28;20491;-79
2023/07/24 06:27:17;;;;;;;0.00;0.00;;;;;;;17.36;100.00;95561.25;5037420;28;20064;-79
2023/07/24 06:30:03;;;;;;;0.10;0.10;;;;;;;17.48;100.00;95576.84;5038083;28;20145;-76
2023/07/24 06:32:48;;;;;;;0.10;0.10;;;;;;;17.54;100.00;95568.28;5037702;28;20041;-78
2023/07/24 06:35:35;;;;;;;0.10;0.10;;;;;;;17.60;100.00;95568.94;5041353;28;20045;-79
2023/07/24 06:38:21;;;;;;;0.10;0.10;;;;;;;17.53;100.00;95569.41;5013707;28;20071;-78
2023/07/24 06:41:07;;;;;;;0.10;0.10;;;;;;;17.46;100.00;95562.88;5025360;28;20047;-79
2023/07/24 06:43:53;;;;;;;0.10;0.10;;;;;;;17.51;100.00;95565.44;5022563;28;20041;-77
2023/07/24 06:46:39;;;;;;;0.10;0.10;;;;;;;17.53;100.00;95565.91;5041165;28;20128;-78
2023/07/24 06:49:24;;;;;;;0.10;0.10;;;;;;;17.64;100.00;95561.00;5041245;28;20041;-77
2023/07/24 06:52:10;;;;;;;0.10;0.10;;;;;;;17.77;100.00;95552.78;5039235;28;20587;-79
2023/07/24 06:54:58;;;;;;;0.10;0.10;;;;;;;17.89;100.00;95554.06;5026704;28;20133;-77
2023/07/24 06:57:43;;;;;;;0.10;0.10;;;;;;;17.80;100.00;95543.22;5019364;28;20053;-78
2023/07/24 07:00:29;;;;;;;0.10;0.10;;;;;;;18.03;100.00;95552.81;5016061;28;20117;-79
2023/07/24 07:03:15;;;;;;;0.10;0.10;;;;;;;17.98;100.00;95536.75;5010508;28;20103;-78
2023/07/24 07:06:01;;;;;;;0.10;0.10;;;;;;;18.54;100.00;95542.28;5018887;28;20045;-78
2023/07/24 07:08:47;;;;;;;0.10;0.10;;;;;;;18.91;100.00;95546.25;5006543;28;21255;-77
2023/07/24 07:11:33;;;;;;;0.10;0.10;;;;;;;19.02;100.00;95547.47;5014173;28;20094;-78
2023/07/24 07:14:19;;;;;;;0.10;0.10;;;;;;;19.18;100.00;95550.44;5020846;28;20584;-79
2023/07/24 07:17:05;;;;;;;0.10;0.10;;;;;;;19.28;100.00;95549.28;5021299;28;20048;-78
2023/07/24 07:19:50;;;;;;;0.10;0.10;;;;;;;19.25;100.00;95564.28;5004923;28;20084;-79
2023/07/24 07:22:36;;;;;;;0.10;0.10;;;;;;;19.42;100.00;95560.72;5022586;28;20127;-81
2023/07/24 07:25:22;;;;;;;0.10;0.10;;;;;;;19.40;100.00;95560.25;5013853;28;20053;-79
2023/07/24 07:28:08;;;;;;;0.00;0.00;;;;;;;19.33;100.00;95559.97;5013929;28;20072;-77
2023/07/24 07:30:54;;;;;;;0.10;0.10;;;;;;;19.16;100.00;95548.06;5022245;28;20056;-78
2023/07/24 07:33:40;;;;;;;0.10;0.10;;;;;;;18.82;100.00;95542.72;5022044;28;20041;-79
2023/07/24 07:36:26;;;;;;;0.10;0.10;;;;;;;19.06;100.00;95550.31;5023820;28;20045;-78
2023/07/24 07:39:11;;;;;;;0.10;0.10;;;;;;;19.20;100.00;95548.19;5019816;28;20121;-79
2023/07/24 07:41:57;;;;;;;0.10;0.10;;;;;;;19.12;100.00;95536.25;5020104;28;20045;-80
2023/07/24 07:44:43;;;;;;;0.10;0.10;;;;;;;19.17;100.00;95546.16;5022800;28;20123;-79
2023/07/24 07:47:29;;;;;;;0.10;0.10;;;;;;;19.07;100.00;95551.94;5023832;28;20065;-78
2023/07/24 07:50:15;;;;;;;0.10;0.10;;;;;;;19.15;100.00;95551.91;5012976;28;20045;-78
2023/07/24 07:53:01;;;;;;;0.10;0.10;;;;;;;18.74;100.00;95546.25;5020212;28;20121;-78
2023/07/24 07:55:55;;;;;;;0.10;0.10;;;;;;;18.54;100.00;95547.72;5022813;28;20049;-80
2023/07/24 07:58:41;;;;;;;0.10;0.10;;;;;;;18.61;100.00;95559.66;5021407;28;20116;-78
2023/07/24 08:01:27;;;;;;;0.10;0.10;;;;;;;18.50;100.00;95560.28;5022010;28;20045;-79
2023/07/24 08:04:13;;;;;;;0.10;0.10;;;;;;;18.31;100.00;95566.03;5023262;28;20041;-79
2023/07/24 08:06:59;;;;;;;0.10;0.10;;;;;;;18.36;100.00;95558.56;5022148;28;20041;-78
2023/07/24 08:09:46;;;;;;;0.10;0.10;;;;;;;18.07;100.00;95559.19;5023032;28;20082;-78
2023/07/24 08:12:31;;;;;;;0.10;0.10;;;;;;;18.17;100.00;95562.69;4999112;28;20107;-77
2023/07/24 08:15:17;;;;;;;0.10;0.10;;;;;;;17.77;100.00;95554.69;5015869;28;20042;-79
2023/07/24 08:18:04;;;;;;;0.10;0.10;;;;;;;17.74;100.00;95560.72;5019060;28;20037;-78
2023/07/24 08:20:51;;;;;;;0.00;0.00;;;;;;;17.93;100.00;95563.94;4999814;28;20058;-78
2023/07/24 08:23:36;;;;;;;0.10;0.10;;;;;;;18.37;100.00;95546.63;5014832;28;20045;-78
2023/07/24 08:26:24;;;;;;;0.10;0.10;;;;;;;18.70;100.00;95546.13;5017725;28;20073;-78
2023/07/24 08:29:10;;;;;;;0.15;0.15;;;;;;;18.90;100.00;95547.34;5021828;28;20495;-78
2023/07/24 08:31:56;;;;;;;0.10;0.10;;;;;;;18.79;100.00;95535.25;5021511;28;20107;-79
2023/07/24 08:34:42;;;;;;;0.10;0.10;;;;;;;18.96;100.00;95529.78;5022757;28;20399;-79
2023/07/24 08:37:27;;;;;;;0.10;0.10;;;;;;;19.03;100.00;95532.00;5009837;28;20602;-79
2023/07/24 08:40:15;;;;;;;0.10;0.10;;;;;;;19.33;100.00;95524.69;5009612;28;20099;-79
2023/07/24 08:43:01;;;;;;;0.10;0.10;;;;;;;19.24;100.00;95526.66;5007329;28;20041;-77
2023/07/24 08:45:47;;;;;;;0.10;0.10;;;;;;;18.95;100.00;95528.19;5022460;28;20075;-78
2023/07/24 08:48:37;;;;;;;0.10;0.10;;;;;;;18.74;100.00;95519.94;5022484;28;20041;-78
2023/07/24 08:51:24;;;;;;;0.10;0.10;;;;;;;19.38;100.00;95532.66;5006838;28;20041;-79
2023/07/24 08:54:12;;;;;;;0.10;0.10;;;;;;;19.79;100.00;95523.03;5016279;28;20076;-79
2023/07/24 08:56:58;;;;;;;0.10;0.10;;;;;;;19.86;100.00;95524.09;5022134;28;20419;-79
2023/07/24 08:59:44;;;;;;;0.10;0.10;;;;;;;19.70;100.00;95521.19;5023214;28;20100;-79
2023/07/24 09:02:34;;;;;;;0.03;0.03;;;;;;;19.32;100.00;95529.34;5018796;28;20043;-78
2023/07/24 09:05:20;;;;;;;0.10;0.10;;;;;;;18.74;100.00;95511.03;5008675;28;20038;-78
2023/07/24 09:08:06;;;;;;;0.05;0.05;;;;;;;18.84;100.00;95514.22;5018251;28;20038;-80
2023/07/24 09:10:53;;;;;;;0.10;0.10;;;;;;;18.76;100.00;95516.94;5021989;28;20203;-79
2023/07/24 09:13:42;;;;;;;0.00;0.00;;;;;;;19.13;100.00;95516.16;5019474;28;20052;-78
2023/07/24 09:16:28;;;;;;;0.10;0.10;;;;;;;19.52;100.00;95500.66;5034303;28;20880;-78
2023/07/24 09:19:18;;;;;;;0.10;0.10;;;;;;;19.53;100.00;95506.88;5019742;28;20049;-78
2023/07/24 09:22:12;;;;;;;0.10;0.10;;;;;;;19.45;100.00;95494.94;5021365;28;20124;-77
2023/07/24 09:24:58;;;;;;;0.10;0.10;;;;;;;19.36;100.00;95500.41;5020753;28;20599;-79
2023/07/24 09:27:44;;;;;;;0.10;0.10;;;;;;;19.47;100.00;95488.09;5017113;28;20072;-79
2023/07/24 09:30:30;;;;;;;0.10;0.10;;;;;;;19.57;100.00;95483.44;5020364;28;20045;-78
2023/07/24 09:33:16;;;;;;;0.10;0.10;;;;;;;20.33;100.00;95480.44;5019994;28;20045;-78
2023/07/24 09:36:04;;;;;;;0.10;0.10;;;;;;;20.94;100.00;95468.97;5016771;28;20049;-77
2023/07/24 09:39:01;;;;;;;0.00;0.00;;;;;;;20.97;100.00;95471.00;5007632;28;20054;-77
2023/07/24 09:41:49;;;;;;;0.10;0.10;;;;;;;21.92;100.00;95465.03;5021812;28;20098;-78
2023/07/24 09:44:35;;;;;;;0.10;0.10;;;;;;;21.90;100.00;95463.81;5020885;28;20072;-75
2023/07/24 09:47:21;;;;;;;0.10;0.10;;;;;;;21.41;100.00;95451.06;5019186;28;20037;-76
2023/07/24 09:50:08;;;;;;;0.10;0.10;;;;;;;21.51;100.00;95454.47;5020359;28;20048;-77
2023/07/24 09:52:56;;;;;;;0.10;0.10;;;;;;;21.41;100.00;95442.91;5020478;28;20073;-78
2023/07/24 09:56:02;;;;;;;0.10;0.10;;;;;;;21.17;100.00;95456.50;5023490;28;20049;-77
2023/07/24 09:58:54;;;;;;;0.10;0.10;;;;;;;21.75;100.00;95448.19;5018897;28;20038;-78
2023/07/24 10:01:40;;;;;;;0.10;0.10;;;;;;;22.10;100.00;95440.25;5020652;28;20052;-78
2023/07/24 10:04:26;;;;;;;0.10;0.10;;;;;;;22.63;100.00;95454.53;5020331;28;20527;-79
2023/07/24 10:07:13;;;;;;;0.05;0.05;;;;;;;23.20;100.00;95458.75;5018158;28;21092;-78
2023/07/24 10:10:01;;;;;;;0.10;0.10;;;;;;;22.55;100.00;95463.69;5007633;28;20040;-77
2023/07/24 10:12:48;;;;;;;0.10;0.10;;;;;;;22.87;100.00;95454.44;5020100;28;20052;-77
2023/07/24 10:15:35;;;;;;;0.10;0.10;;;;;;;22.95;100.00;95447.22;5018851;28;20049;-77
2023/07/24 10:18:27;;;;;;;0.10;0.10;;;;;;;23.02;100.00;95450.91;5010079;28;20045;-78
2023/07/24 10:21:13;;;;;;;0.10;0.10;;;;;;;23.59;100.00;95446.81;5021968;28;20400;-77
2023/07/24 10:23:59;;;;;;;0.10;0.10;;;;;;;23.46;100.00;95437.13;5015679;28;20056;-78
2023/07/24 10:26:45;;;;;;;0.10;0.10;;;;;;;22.87;100.00;95451.69;5018629;28;20700;-78
2023/07/24 10:29:35;;;;;;;0.10;0.10;;;;;;;23.13;100.00;95443.00;5017660;28;20037;-77
2023/07/24 10:32:21;;;;;;;0.05;0.05;;;;;;;23.03;100.00;95455.25;5012734;28;20065;-77
2023/07/24 10:35:08;;;;;;;0.10;0.10;;;;;;;22.97;100.00;95443.00;5019882;28;20041;-79
2023/07/24 10:38:02;;;;;;;0.10;0.10;;;;;;;23.26;100.00;95446.41;5016284;28;20045;-78
2023/07/24 10:40:53;;;;;;;0.10;0.10;;;;;;;23.23;100.00;95441.66;5022273;28;20052;-77
2023/07/24 10:43:46;;;;;;;0.10;0.10;;;;;;;24.29;98.17;95431.50;5019614;28;20103;-78
2023/07/24 10:46:51;;;;;;;0.10;0.10;;;;;;;24.70;94.24;95451.81;5012409;28;20056;-77
2023/07/24 10:49:49;;;;;;;0.10;0.10;;;;;;;24.43;95.25;95442.72;5018811;28;20045;-78
2023/07/24 10:52:35;;;;;;;0.10;0.10;;;;;;;24.27;95.34;95429.09;5007051;28;20065;-78
2023/07/24 10:55:24;;;;;;;0.10;0.10;;;;;;;24.14;95.99;95433.94;5021317;28;20049;-80
2023/07/24 10:58:12;;;;;;;0.15;0.15;;;;;;;23.92;94.21;95436.59;5020569;28;20084;-78
2023/07/24 11:00:58;;;;;;;0.10;0.10;;;;;;;24.34;92.56;95445.69;5002357;28;20054;-78
2023/07/24 11:03:44;;;;;;;0.10;0.10;;;;;;;24.84;91.96;95430.19;5019224;28;20056;-77
2023/07/24 11:06:30;;;;;;;0.10;0.10;;;;;;;25.48;87.10;95453.16;5020241;28;20073;-79
2023/07/24 11:09:16;;;;;;;0.10;0.10;;;;;;;25.43;88.09;95453.47;5022584;28;20129;-78
2023/07/24 11:12:12;;;;;;;0.10;0.10;;;;;;;25.04;87.98;95439.16;5019393;28;20045;-78
2023/07/24 11:14:58;;;;;;;0.03;0.03;;;;;;;25.18;89.79;95428.44;5020756;28;20107;-77
2023/07/24 11:17:44;;;;;;;0.00;0.00;;;;;;;24.21;88.55;95430.56;5021526;28;20050;-77
2023/07/24 11:20:30;;;;;;;0.10;0.10;;;;;;;24.44;90.84;95428.72;5024568;28;20075;-77
2023/07/24 11:23:17;;;;;;;0.10;0.10;;;;;;;24.37;91.57;95422.31;5021784;28;20033;-78
2023/07/24 11:26:05;;;;;;;0.10;0.10;;;;;;;24.03;91.70;95418.47;5024786;28;20563;-77
2023/07/24 11:28:52;;;;;;;0.20;0.20;;;;;;;24.56;87.99;95399.59;5022458;28;20542;-78
2023/07/24 11:31:41;;;;;;;0.20;0.20;;;;;;;26.28;80.75;95395.50;5023448;28;20459;-78
2023/07/24 11:34:27;;;;;;;0.17;0.17;;;;;;;29.99;54.62;95377.78;5015719;28;20491;-77
2023/07/24 11:37:13;;;;;;;0.10;0.10;;;;;;;32.05;40.70;95384.56;5019087;28;20138;-79
2023/07/24 11:40:19;;;;;;;0.20;0.20;;;;;;;31.76;40.49;95370.25;5024617;28;20037;-78
2023/07/24 11:43:18;;;;;;;0.20;0.20;;;;;;;33.61;34.78;95360.50;5023985;28;20048;-78
2023/07/24 11:46:04;;;;;;;0.17;0.17;;;;;;;34.06;35.12;95367.19;5021206;28;20037;-77
2023/07/24 11:48:55;;;;;;;0.20;0.20;;;;;;;33.53;31.21;95362.63;5022530;28;20045;-78
2023/07/24 11:51:41;;;;;;;0.10;0.10;;;;;;;33.15;31.63;95370.38;5012282;28;20049;-79
2023/07/24 11:54:27;;;;;;;0.10;0.10;;;;;;;32.82;33.03;95374.84;5015876;28;20440;-78
2023/07/24 11:57:16;;;;;;;0.10;0.10;;;;;;;32.88;34.32;95351.84;4990615;28;20099;-77
2023/07/24 12:00:03;;;;;;;0.20;0.20;;;;;;;34.18;31.26;95368.53;5000307;28;20125;-78
2023/07/24 12:02:58;;;;;;;0.10;0.10;;;;;;;33.64;31.15;95345.81;5019326;28;20046;-79
2023/07/24 12:05:44;;;;;;;0.20;0.20;;;;;;;33.59;30.71;95347.06;5020749;28;20073;-77
2023/07/24 12:08:34;;;;;;;0.15;0.15;;;;;;;35.60;28.21;95345.00;5021220;28;20098;-78
2023/07/24 12:11:20;;;;;;;0.10;0.10;;;;;;;33.48;30.21;95350.06;5023175;28;20124;-78
2023/07/24 12:14:06;;;;;;;0.10;0.10;;;;;;;33.56;30.98;95330.53;5013844;28;20158;-80
2023/07/24 12:17:09;;;;;;;0.10;0.10;;;;;;;32.58;31.81;95326.94;5020582;28;20202;-80
2023/07/24 12:19:56;;;;;;;0.10;0.10;;;;;;;34.14;31.03;95328.19;5006662;28;20478;-79
2023/07/24 12:22:42;;;;;;;0.20;0.20;;;;;;;33.41;32.40;95319.69;5022788;28;20364;-80
2023/07/24 12:25:27;;;;;;;0.10;0.10;;;;;;;38.04;24.47;95311.09;5024067;28;20046;-80
2023/07/24 12:28:13;;;;;;;0.10;0.10;;;;;;;39.38;22.98;95309.84;5022069;28;20041;-79
2023/07/24 12:30:59;;;;;;;0.00;0.00;;;;;;;35.22;30.00;95305.09;5019221;28;20041;-78
2023/07/24 12:33:45;;;;;;;0.00;0.00;;;;;;;29.08;45.29;95331.53;5011485;28;20053;-79
2023/07/24 12:36:33;;;;;;;0.00;0.00;;;;;;;25.86;76.63;95328.09;5005887;28;20156;-79
2023/07/24 12:39:19;;;;;;;0.00;0.00;;;;;;;25.58;79.69;95325.75;5019947;28;20045;-79
2023/07/24 12:42:06;;;;;;;0.00;0.00;;;;;;;24.25;92.11;95348.63;5021552;28;20041;-80
2023/07/24 12:44:51;;;;;;;0.00;0.00;;;;;;;23.57;99.07;95339.88;5023962;28;20041;-79
2023/07/24 12:47:37;;;;;;;0.00;0.00;;;;;;;23.29;98.13;95337.34;5023629;28;20611;-79
2023/07/24 12:50:24;;;;;;;0.10;0.10;;;;;;;23.73;96.74;95328.13;5007704;28;20042;-80
2023/07/24 12:53:10;;;;;;;0.00;0.00;;;;;;;23.24;100.00;95351.25;5020341;28;20049;-80
2023/07/24 12:55:56;;;;;;;0.00;0.00;;;;;;;22.83;100.00;95369.00;5029625;28;20053;-79
2023/07/24 12:58:41;;;;;;;0.10;0.10;;;;;;;22.34;100.00;95363.88;5032070;28;20043;-79